Notice: A non well formed numeric value encountered in /storage/content/70/1007070/meteopatras.eu/public_html/weather/scriptsWD/tagsWD.php on line 283 Notice: A non well formed numeric value encountered in /storage/content/70/1007070/meteopatras.eu/public_html/weather/scriptsWD/tagsWD.php on line 284



Ευχαριστούμε που συμβάλλετε στη διατήρηση της σελίδας μας.

Thank you for your donations, it really helps to maintain the page.


Στατιστικά Καιρού & Άλλα..









Δείκτης Πυρκαγιάς (FWI)

Καστελόκαμπος Ρίον more information Kastelokampos Rion


Κάμερα Ρομανού more information Romanos Cam


Ραντάρ Κεραυνών more information blitzortung!


Ραντάρ Βροχής more information rain snow radar


Επισκεφθείτε άλλες ιστοσελίδες καιρού μας:

Meteopatras.Eu in
Euweather NetworkMeteopatras.Eu in Euweather Network

Weather CloudWeather Cloud

PWS WeatherPWS Weather

Awekas NetWeather data from station Patra-Ketx

WunderGroundWeather data from station Patra-Ketx




Ιδιοκτησία και Επίβλεψη : Μουλάς Αντρέας

 Πάτρα, Ελλάδα - Γ.Πλάτος : 38°14'21" Β - Γ.Μήκος : 21°45'5" Α - Υψόμετρο : 56μ

Κοντινές Αναφορές METAR

   
LGRX - Araxos
Ενημερώθηκε: 11-12-2019 02:50
ΜΗ τρέχουσες
Μερικώς Νεφελώδης  
Μερικώς Νεφελώδης  
   Άνεμος: Άπνοια
Άνεμος: Άπνοια
Θερμοκρασία: 10°C
Σημείο Δρόσου: 9°C
Υγρασία: 94%
Βαρόμετρο: 1005 hPa
Σύννεφα: Μερικώς Νεφελώδης
Ορατότητα: More than 10 km
Λεπτομέρειες Σύννεφου: Μερικώς Νεφελώδης 2000 ft,
Μερικώς Νεφελώδης 7000 ft
LGRX 110050Z 00000KT 9999 SCT020 SCT070 10/09 Q1005
LGAD - Andravida
Ενημερώθηκε: 11-12-2019 04:20
Ελαφριά Βροχή, Συννεφιά  
Ελαφριά Βροχή, Συννεφιά  
   Άνεμος: ΑΝΑ 14.8 km/h
Άνεμος: ΑΝΑ 14.8 km/h
Θερμοκρασία: 10°C
Δείκτης Ψυχρότητας: 8°C
Σημείο Δρόσου: 10°C
Υγρασία: 100%
Βαρόμετρο: 1005 hPa
Σύννεφα: Συννεφιά
Ορατότητα: More than 10 km
Λεπτομέρειες Σύννεφου: Κυρίως Αίθριος 1800 ft,
Κυρίως Συννεφιά 2500 ft,
Συννεφιά 8000 ft
LGAD 110220Z 12008KT 9999 -RA FEW018TCU BKN025 OVC080 10/10 Q1005
LGZA - Zakinthos
Ενημερώθηκε: 10-12-2019 19:50
ΜΗ τρέχουσες
Κυρίως Συννεφιά  
Κυρίως Συννεφιά  
   Άνεμος: Άπνοια
Άνεμος: Άπνοια
Θερμοκρασία: 11°C
Σημείο Δρόσου: 11°C
Υγρασία: 100%
Βαρόμετρο: 1004 hPa
Σύννεφα: Κυρίως Συννεφιά
Ορατότητα: More than 10 km
Λεπτομέρειες Σύννεφου: Κυρίως Αίθριος 1500 ft,
Μερικώς Νεφελώδης 2000 ft,
Κυρίως Συννεφιά 7000 ft
LGZA 101750Z 00000KT 9999 FEW015 SCT020 BKN070 11/11 Q1004
LGKF - Kefallinia
Ενημερώθηκε: 10-12-2019 19:50
ΜΗ τρέχουσες
Ελαφριά Βροχή, Συννεφιά  
Ελαφριά Βροχή, Συννεφιά  
   Άνεμος: Βοράς 11.1 km/h
Άνεμος: Βοράς 11.1 km/h
Θερμοκρασία: 11°C
Σημείο Δρόσου: 11°C
Υγρασία: 100%
Βαρόμετρο: 1004 hPa
Σύννεφα: Συννεφιά
Ορατότητα: 9 km
Λεπτομέρειες Σύννεφου: Μερικώς Νεφελώδης 1000 ft,
Μερικώς Νεφελώδης 2000 ft,
Συννεφιά 7000 ft
LGKF 101750Z 35006KT 9000 -RA SCT010 SCT020 OVC070 11/11 Q1004
LGPZ - Preveza
Ενημερώθηκε: 11-12-2019 03:50
Ελαφριά Βροχή, Μερικώς Νεφελώδης  
Ελαφριά Βροχή, Μερικώς Νεφελώδης  
   Άνεμος: ΑΒΑ 14.8 km/h
Άνεμος: ΑΒΑ 14.8 km/h
Θερμοκρασία: 12°C
Σημείο Δρόσου: 11°C
Υγρασία: 94%
Βαρόμετρο: 1005 hPa
Σύννεφα: Μερικώς Νεφελώδης
Ορατότητα: 8 km
Λεπτομέρειες Σύννεφου: Μερικώς Νεφελώδης 1500 ft,
Μερικώς Νεφελώδης 3000 ft
LGPZ 110150Z 06008KT 8000 -RA SCT015 SCT030 12/11 Q1005
LGKL - Kalamata
Ενημερώθηκε: 11-12-2019 04:20
  
  
   Άνεμος: ποικίλλει 5.6 km/h
Άνεμος: ποικίλλει 5.6 km/h
Θερμοκρασία: 11°C
Σημείο Δρόσου: 9°C
Υγρασία: 88%
Βαρόμετρο: 1006 hPa
LGKL 110220Z AUTO VRB03KT //// // ////// 11/09 Q1006 RERA
LGKR - Kerkyra
Ενημερώθηκε: 11-12-2019 04:20
Συννεφιά  
Συννεφιά  
   Άνεμος: ΒΒΑ 13 km/h
Άνεμος: ΒΒΑ 13 km/h
Θερμοκρασία: 12°C
Σημείο Δρόσου: 10°C
Υγρασία: 88%
Βαρόμετρο: 1005 hPa
Σύννεφα: Συννεφιά
Ορατότητα: More than 10 km
Λεπτομέρειες Σύννεφου: Μερικώς Νεφελώδης 1400 ft,
Κυρίως Συννεφιά 3000 ft,
Συννεφιά 8000 ft
LGKR 110220Z 03007KT 9999 SCT014TCU BKN030 OVC080 12/10 Q1005 NOSIG
LGIO - Iwannina
Ενημερώθηκε: 11-12-2019 04:20
Ελαφριά Βροχή  
Ελαφριά Βροχή  
   Άνεμος: ΔΝΔ 11.1 km/h
Άνεμος: ΔΝΔ 11.1 km/h
Θερμοκρασία: 9°C
Δείκτης Ψυχρότητας: 7°C
Σημείο Δρόσου: 4°C
Υγρασία: 71%
Βαρόμετρο: 1005 hPa
LGIO 110220Z AUTO 25006KT //// -RA ////// 09/04 Q1005 RE//
LGPZ - Leykada
Ενημερώθηκε: 11-12-2019 03:50
Ελαφριά Βροχή, Μερικώς Νεφελώδης  
Ελαφριά Βροχή, Μερικώς Νεφελώδης  
   Άνεμος: ΑΒΑ 14.8 km/h
Άνεμος: ΑΒΑ 14.8 km/h
Θερμοκρασία: 12°C
Σημείο Δρόσου: 11°C
Υγρασία: 94%
Βαρόμετρο: 1005 hPa
Σύννεφα: Μερικώς Νεφελώδης
Ορατότητα: 8 km
Λεπτομέρειες Σύννεφου: Μερικώς Νεφελώδης 1500 ft,
Μερικώς Νεφελώδης 3000 ft
LGPZ 110150Z 06008KT 8000 -RA SCT015 SCT030 12/11 Q1005
LGEL - Elefsina
Ενημερώθηκε: 11-12-2019 04:20
Κυρίως Συννεφιά  
Κυρίως Συννεφιά  
   Άνεμος: Άπνοια
Άνεμος: Άπνοια
Θερμοκρασία: 11°C
Σημείο Δρόσου: 11°C
Υγρασία: 100%
Βαρόμετρο: 1004 hPa
Σύννεφα: Κυρίως Συννεφιά
Ορατότητα: More than 10 km
Λεπτομέρειες Σύννεφου: Κυρίως Αίθριος 1000 ft,
Κυρίως Αίθριος 1800 ft,
Κυρίως Συννεφιά 2000 ft,
Κυρίως Συννεφιά 7000 ft
LGEL 110220Z 00000KT 9999 FEW010 FEW018TCU BKN020 BKN070 11/11 Q1004
LGKC - Kythira
Ενημερώθηκε: 10-12-2019 13:50
ΜΗ τρέχουσες
Μερικώς Νεφελώδης  
Μερικώς Νεφελώδης  
   Άνεμος: ΝΝΑ 22.2 km/h
Άνεμος: ΝΝΑ 22.2 km/h
Θερμοκρασία: 16°C
Σημείο Δρόσου: 13°C
Υγρασία: 83%
Βαρόμετρο: 1007 hPa
Σύννεφα: Μερικώς Νεφελώδης
Ορατότητα: More than 10 km
Λεπτομέρειες Σύννεφου: Κυρίως Αίθριος 1600 ft,
Μερικώς Νεφελώδης 2000 ft
LGKC 101150Z 15012KT 9999 FEW016 SCT020 16/13 Q1007
LGIR - Hraklio
Ενημερώθηκε: 11-12-2019 04:20
Κυρίως Συννεφιά  
Κυρίως Συννεφιά  
   Άνεμος: Νότος 13 km/h
Άνεμος: Νότος 13 km/h
Θερμοκρασία: 14°C
Σημείο Δρόσου: 10°C
Υγρασία: 77%
Βαρόμετρο: 1007 hPa
Σύννεφα: Κυρίως Συννεφιά
Ορατότητα: More than 10 km
Λεπτομέρειες Σύννεφου: Κυρίως Αίθριος 2500 ft,
Κυρίως Συννεφιά 7000 ft
LGIR 110220Z 17007KT 9999 FEW025 BKN070 14/10 Q1007 NOSIG

Script developed by  Saratoga-weather.org Προσαρμοσμένος για το πρότυπο του  Weerstation Leuven

Μπορείτε να βρείτε πληροφορίες καιρού μας και σε:

European Weather Network

WeatherCloud

Weather Underground

Δύκτιο Σταθμών Ελλάδας

AWEKAS

HAMweather, WeatherForYou, PWS Weather

MeteoPatras.Eu